This is the latest recevied weather packets stored in our database for station/object 9W3FAB-3. If no packets are shown the sender has not sent any weather packets the latest 10 day(s).
| Time | Temp. | Humidity | Pressure | Rain* | Wind** | Luminosity | Snow |
|---|---|---|---|---|---|---|---|
| 1777530263 | 25.56° C | 67% | 1006.8 hPa | - | - | - | - |
| 1777529362 | 25.56° C | 67% | 1006.8 hPa | - | - | - | - |
| 1777528469 | 25.56° C | 66% | 1007 hPa | - | - | - | - |
| 1777527570 | 25° C | 65% | 1007.1 hPa | - | - | - | - |
| 1777526661 | 24.44° C | 63% | 1007.5 hPa | - | - | - | - |
| 1777525759 | 23.89° C | 59% | 1007.7 hPa | - | - | - | - |
| 1777524858 | 23.89° C | 58% | 1007.6 hPa | - | - | - | - |
| 1777523957 | 23.89° C | 57% | 1008 hPa | - | - | - | - |
| 1777523056 | 23.89° C | 56% | 1008.2 hPa | - | - | - | - |
| 1777522156 | 23.89° C | 56% | 1008.3 hPa | - | - | - | - |
| 1777521263 | 23.89° C | 54% | 1008.6 hPa | - | - | - | - |
| 1777520354 | 23.89° C | 55% | 1008.9 hPa | - | - | - | - |
| 1777519453 | 23.89° C | 55% | 1008.9 hPa | - | - | - | - |
| 1777518552 | 23.89° C | 55% | 1008.7 hPa | - | - | - | - |
| 1777517717 | 23.33° C | 55% | 1008.5 hPa | - | - | - | - |
| 1777516808 | 23.89° C | 54% | 1008.9 hPa | - | - | - | - |
| 1777515909 | 23.89° C | 56% | 1009.1 hPa | - | - | - | - |
| 1777515000 | 23.33° C | 56% | 1009.5 hPa | - | - | - | - |
| 1777514099 | 23.89° C | 56% | 1009.4 hPa | - | - | - | - |
| 1777513188 | 23.33° C | 56% | 1009.5 hPa | - | - | - | - |
| 1777512287 | 23.89° C | 57% | 1009.3 hPa | - | - | - | - |
| 1777511386 | 23.89° C | 57% | 1009.3 hPa | - | - | - | - |
| 1777510485 | 23.89° C | 57% | 1009.1 hPa | - | - | - | - |
| 1777508683 | 24.44° C | 59% | 1009.1 hPa | - | - | - | - |
| 1777507783 | 25.56° C | 62% | 1008.9 hPa | - | - | - | - |
* Rain since midnight (hover to see other rain measurements)
** Current wind speed in m/s (hover to see current wind gust speed)